Time;durP1;ratioP1;P1;durP2;ratioP2;P2;SDS_P1;SDS_P2;PMS_P1;PMS_P2;Temp;Humidity;BMP_temperature;BMP_pressure;BME280_temperature;BME280_humidity;BME280_pressure;Samples;Min_cycle;Max_cycle;Signal;HPM_P1;HPM_P2
2021/04/14 00:02:09;;;;;;;57.30;30.30;;;;;;;0.99;82.87;99562.60;4357929;81;21131;-89
2021/04/14 00:08:11;;;;;;;51.05;30.30;;;;;;;0.98;83.03;99538.64;4359385;80;21654;-87
2021/04/14 00:14:12;;;;;;;52.48;30.17;;;;;;;0.98;83.03;99538.64;4364178;80;22806;-88
2021/04/14 00:20:15;;;;;;;59.03;30.05;;;;;;;1.15;82.89;99551.78;4346095;80;21586;-87
2021/04/14 00:26:17;;;;;;;54.50;28.50;;;;;;;1.07;82.98;99542.23;4310747;80;21300;-88
2021/04/14 00:32:19;;;;;;;48.95;28.17;;;;;;;1.16;82.86;99543.94;4358913;80;21185;-89
2021/04/14 00:38:22;;;;;;;49.70;28.23;;;;;;;1.26;82.78;99537.00;4331515;80;21118;-87
2021/04/14 00:44:24;;;;;;;47.45;26.90;;;;;;;1.31;82.72;99540.95;4333883;80;21210;-87
2021/04/14 00:50:27;;;;;;;48.65;28.15;;;;;;;1.31;82.52;99538.79;4354525;80;21614;-88
2021/04/14 00:56:29;;;;;;;52.73;28.40;;;;;;;1.26;82.60;99528.91;4356479;80;21146;-88
2021/04/14 01:02:31;;;;;;;47.17;26.33;;;;;;;1.17;82.66;99525.33;4359300;80;21739;-89
2021/04/14 01:08:33;;;;;;;45.85;26.40;;;;;;;1.11;82.91;99533.81;4357901;80;21737;-88
2021/04/14 01:14:35;;;;;;;46.63;26.77;;;;;;;1.20;82.91;99532.81;4321071;81;21625;-88
2021/04/14 01:20:37;;;;;;;53.35;27.82;;;;;;;1.25;82.82;99523.25;4354846;81;21196;-88
2021/04/14 01:26:39;;;;;;;57.83;29.82;;;;;;;1.17;82.84;99511.84;4351055;80;21144;-88
2021/04/14 01:32:41;;;;;;;51.88;28.38;;;;;;;1.17;82.84;99511.84;4362011;80;21842;-88
2021/04/14 01:38:42;;;;;;;48.78;26.30;;;;;;;1.07;82.83;99516.62;4360505;80;21233;-88
2021/04/14 01:44:44;;;;;;;48.00;26.12;;;;;;;1.08;83.05;99514.97;4349269;80;21186;-89
2021/04/14 01:50:46;;;;;;;43.83;25.37;;;;;;;1.21;82.88;99510.12;4346554;80;21168;-89
2021/04/14 01:56:48;;;;;;;51.48;26.40;;;;;;;1.29;83.00;99508.08;4356815;80;21189;-87
2021/04/14 02:02:50;;;;;;;54.55;26.20;;;;;;;1.22;82.76;99504.97;4348455;80;21119;-88
2021/04/14 02:08:51;;;;;;;51.53;26.97;;;;;;;1.23;82.67;99501.73;4352744;80;21720;-88
2021/04/14 02:14:53;;;;;;;53.40;27.73;;;;;;;1.20;82.81;99497.75;4356641;80;21591;-88
2021/04/14 02:20:55;;;;;;;45.58;26.37;;;;;;;1.20;82.81;99497.75;4359029;80;21122;-87
2021/04/14 02:26:56;;;;;;;45.73;27.32;;;;;;;1.04;82.76;99484.33;4360266;80;21162;-88
2021/04/14 02:32:58;;;;;;;47.00;27.02;;;;;;;1.04;82.76;99484.33;4360513;81;21364;-87
2021/04/14 02:39:00;;;;;;;48.95;26.35;;;;;;;1.07;83.05;99477.52;4327837;81;21139;-87
2021/04/14 02:45:04;;;;;;;50.52;27.67;;;;;;;1.14;82.96;99479.28;4326081;81;21145;-89
2021/04/14 02:51:07;;;;;;;52.70;29.00;;;;;;;0.96;82.76;99476.94;4354048;80;21599;-87
2021/04/14 02:57:08;;;;;;;54.03;30.08;;;;;;;0.99;83.25;99473.64;4354837;80;21114;-89
2021/04/14 03:03:10;;;;;;;57.65;31.07;;;;;;;1.04;82.91;99454.67;4347705;80;21166;-88
2021/04/14 03:09:11;;;;;;;55.50;29.37;;;;;;;1.21;83.03;99467.52;4351328;81;21603;-87
2021/04/14 03:15:15;;;;;;;52.13;28.75;;;;;;;1.22;82.91;99474.53;4317899;81;21188;-88
2021/04/14 03:21:16;;;;;;;53.90;29.63;;;;;;;1.25;82.83;99471.22;4312339;81;21168;-88
2021/04/14 03:27:18;;;;;;;56.53;30.30;;;;;;;1.25;82.86;99472.00;4306019;82;21152;-87
2021/04/14 03:33:19;;;;;;;52.75;29.20;;;;;;;1.25;82.89;99476.62;4305541;81;21180;-88
2021/04/14 03:39:21;;;;;;;56.23;30.72;;;;;;;1.19;82.87;99475.13;4305242;81;21614;-88
2021/04/14 03:45:31;;;;;;;59.40;30.35;;;;;;;1.24;82.85;99477.70;4300922;81;21132;-88
2021/04/14 03:51:32;;;;;;;49.85;28.00;;;;;;;1.19;82.92;99473.78;4307083;80;21135;-88
2021/04/14 03:57:33;;;;;;;48.48;27.07;;;;;;;1.11;82.97;99469.88;4304255;81;21161;-89
2021/04/14 04:03:35;;;;;;;47.98;27.02;;;;;;;1.14;83.01;99473.88;4309672;81;21199;-88
2021/04/14 04:09:37;;;;;;;48.78;27.02;;;;;;;1.06;82.86;99461.91;4306432;81;21335;-90
2021/04/14 04:15:39;;;;;;;38.20;24.12;;;;;;;1.19;82.94;99494.02;4343163;80;21140;-88
2021/04/14 04:21:40;;;;;;;46.98;25.00;;;;;;;1.21;82.84;99491.25;4356691;80;21504;-89
2021/04/14 04:27:42;;;;;;;50.43;25.50;;;;;;;1.21;82.84;99491.25;4360847;80;21183;-89
2021/04/14 04:33:43;;;;;;;41.37;24.00;;;;;;;1.10;83.03;99487.70;4370274;80;21511;-87
2021/04/14 04:39:45;;;;;;;39.60;23.67;;;;;;;1.08;83.06;99504.75;4235094;80;21138;-88
2021/04/14 04:45:47;;;;;;;43.33;24.35;;;;;;;1.08;83.22;99502.84;4115585;85;21178;-88
2021/04/14 04:51:48;;;;;;;47.83;26.97;;;;;;;1.12;83.23;99497.11;4109720;85;21182;-87
2021/04/14 04:57:51;;;;;;;49.00;27.67;;;;;;;1.12;83.19;99503.04;4126321;85;21165;-88
2021/04/14 05:03:53;;;;;;;45.83;26.07;;;;;;;1.13;83.27;99510.83;4118691;85;21162;-87
2021/04/14 05:09:54;;;;;;;54.53;30.68;;;;;;;1.11;83.29;99517.63;4112412;85;21174;-88
2021/04/14 05:15:56;;;;;;;46.00;25.60;;;;;;;1.09;83.32;99517.94;4062637;84;21203;-89
2021/04/14 05:21:58;;;;;;;53.28;32.42;;;;;;;1.11;83.47;99513.59;4139659;84;21134;-89
2021/04/14 05:34:13;;;;;;;47.00;24.95;;;;;;;1.10;83.36;99515.47;4584848;76;22968;-89
2021/04/14 05:40:16;;;;;;;50.30;26.93;;;;;;;1.11;83.35;99513.02;4488595;78;21128;-89
2021/04/14 05:46:20;;;;;;;40.73;23.73;;;;;;;1.11;83.35;99513.02;4488108;78;21157;-90
2021/04/14 05:52:21;;;;;;;39.10;22.22;;;;;;;1.27;83.31;99531.03;4489020;78;21161;-90
2021/04/14 05:58:23;;;;;;;38.90;24.02;;;;;;;1.33;83.22;99532.55;4471919;78;21166;-91
2021/04/14 06:04:24;;;;;;;40.92;23.83;;;;;;;1.32;83.27;99539.03;4488956;78;21322;-92
2021/04/14 06:10:26;;;;;;;38.95;22.58;;;;;;;1.31;83.58;99535.55;4489263;78;21128;-91
2021/04/14 06:16:27;;;;;;;42.13;23.83;;;;;;;1.37;82.94;99551.07;4492352;78;21172;-90
2021/04/14 06:22:29;;;;;;;43.78;25.27;;;;;;;1.37;83.18;99549.72;4485533;78;21192;-92
2021/04/14 06:28:31;;;;;;;41.23;23.65;;;;;;;1.37;83.18;99549.72;4488786;78;21177;-91
2021/04/14 06:34:32;;;;;;;45.00;26.93;;;;;;;1.36;83.19;99549.48;4492093;78;21131;-90
2021/04/14 06:46:41;;;;;;;43.68;25.12;;;;;;;1.53;83.34;99544.27;4496601;78;21589;-90
2021/04/14 06:52:51;;;;;;;57.27;30.37;;;;;;;1.53;83.34;99544.27;4498109;78;21141;-89
2021/04/14 06:59:05;;;;;;;44.08;24.27;;;;;;;1.60;83.18;99543.28;4500276;77;21187;-88
2021/04/14 07:05:14;;;;;;;33.95;21.73;;;;;;;1.60;83.18;99543.28;4488420;78;21137;-88
2021/04/14 07:11:21;;;;;;;32.45;20.00;;;;;;;1.60;83.22;99545.98;4496424;78;21637;-88
2021/04/14 07:17:50;;;;;;;39.85;22.32;;;;;;;1.51;83.26;99522.17;4497901;79;21137;-89
2021/04/14 07:23:57;;;;;;;42.35;22.77;;;;;;;1.66;83.26;99543.98;4491720;78;21189;-89
2021/04/14 07:30:22;;;;;;;30.40;17.77;;;;;;;1.62;83.39;99547.84;4494021;78;21179;-90
2021/04/14 07:36:55;;;;;;;31.30;19.77;;;;;;;1.65;83.39;99555.33;4489145;78;21152;-92
2021/04/14 07:43:20;;;;;;;31.87;19.07;;;;;;;1.63;83.47;99556.74;4421606;74;29145;-92
2021/04/14 07:49:26;;;;;;;30.40;19.73;;;;;;;1.87;83.42;99564.02;4226817;83;21159;-91
2021/04/14 07:55:33;;;;;;;30.80;18.35;;;;;;;1.87;83.42;99564.02;4223787;83;21841;-91
2021/04/14 08:01:37;;;;;;;;;;;;;;;1.99;83.49;99561.03;4232769;83;21476;-93
2021/04/14 08:07:43;;;;;;;29.67;18.27;;;;;;;2.06;83.76;99560.08;4155242;85;20185;-91
2021/04/14 08:13:45;;;;;;;25.52;15.25;;;;;;;2.12;83.57;99564.79;4234390;83;21313;-93
2021/04/14 08:20:00;;;;;;;22.95;14.05;;;;;;;2.02;83.52;99566.39;4231233;83;21333;-87
2021/04/14 08:26:16;;;;;;;26.75;16.87;;;;;;;1.94;83.84;99573.86;4229748;83;21668;-87
2021/04/14 08:32:18;;;;;;;27.40;16.57;;;;;;;1.94;83.84;99573.86;4243341;82;21192;-87
2021/04/14 08:38:28;;;;;;;24.47;15.05;;;;;;;1.80;83.50;99584.70;4261627;83;21599;-87
2021/04/14 08:44:33;;;;;;;31.25;18.02;;;;;;;1.77;83.62;99571.01;4254673;83;21179;-86
2021/04/14 08:50:43;;;;;;;28.32;17.00;;;;;;;1.97;83.99;99570.55;4270227;82;21195;-86
2021/04/14 08:56:45;;;;;;;26.15;16.37;;;;;;;2.17;84.05;99569.54;4271679;82;21215;-86
2021/04/14 09:02:48;;;;;;;18.50;11.90;;;;;;;2.24;84.02;99542.88;4268834;82;21183;-86
2021/04/14 09:08:53;;;;;;;38.73;17.15;;;;;;;2.24;84.02;99542.88;4264066;83;21694;-86
2021/04/14 09:15:22;;;;;;;11.68;7.35;;;;;;;2.39;83.53;99553.34;4267591;82;21151;-85
2021/04/14 09:21:25;;;;;;;7.60;5.40;;;;;;;2.27;83.49;99558.48;4122345;85;21163;-85
2021/04/14 09:27:44;;;;;;;7.58;3.35;;;;;;;2.11;83.62;99568.61;4118638;84;21203;-87
2021/04/14 09:33:51;;;;;;;17.35;8.00;;;;;;;2.08;83.82;99557.06;4113504;85;21190;-87
2021/04/14 09:40:03;;;;;;;8.95;3.40;;;;;;;2.08;83.82;99557.06;4119279;85;21341;-87
2021/04/14 09:46:28;;;;;;;9.38;5.03;;;;;;;2.21;84.13;99550.25;4117650;84;21896;-88
2021/04/14 09:52:49;;;;;;;9.20;5.08;;;;;;;2.12;84.15;99557.50;4119005;85;21314;-88
2021/04/14 09:58:59;;;;;;;9.75;3.95;;;;;;;2.08;83.83;99551.13;4112895;85;21214;-88
2021/04/14 10:05:00;;;;;;;8.23;5.08;;;;;;;2.08;83.98;99547.08;4119457;84;21357;-88
2021/04/14 10:11:02;;;;;;;8.85;5.78;;;;;;;2.20;84.04;99551.37;4119752;85;21364;-89
2021/04/14 10:17:07;;;;;;;8.65;4.90;;;;;;;2.22;83.76;99541.06;4097244;85;21176;-88
2021/04/14 10:23:12;;;;;;;13.85;5.62;;;;;;;2.30;83.98;99541.65;4017219;87;21358;-88
2021/04/14 10:29:14;;;;;;;19.82;8.83;;;;;;;2.48;83.73;99537.97;4017928;85;21205;-89
2021/04/14 10:35:21;;;;;;;11.70;5.53;;;;;;;2.54;83.45;99525.92;4013771;87;21192;-89
2021/04/14 10:41:26;;;;;;;21.27;6.37;;;;;;;2.60;83.41;99530.66;4008753;87;21204;-89
2021/04/14 10:47:33;;;;;;;29.35;8.80;;;;;;;2.53;83.19;99524.88;4012636;87;21252;-89
2021/04/14 10:53:40;;;;;;;11.12;5.70;;;;;;;2.54;82.85;99526.47;4011989;87;21191;-89
2021/04/14 10:59:41;;;;;;;13.78;4.83;;;;;;;2.69;83.31;99516.62;3886564;90;21377;-89
2021/04/14 11:05:56;;;;;;;15.78;5.85;;;;;;;2.74;82.78;99509.17;3928269;89;21610;-89
2021/04/14 11:12:02;;;;;;;12.15;6.30;;;;;;;2.73;82.58;99512.18;3930355;89;21199;-89
2021/04/14 11:18:08;;;;;;;33.80;11.48;;;;;;;2.78;82.45;99513.41;3952744;88;21758;-91
2021/04/14 11:24:18;;;;;;;14.60;7.08;;;;;;;2.79;82.43;99511.74;4012810;88;21195;-90
2021/04/14 11:30:20;;;;;;;22.75;8.73;;;;;;;2.75;81.88;99504.02;3975141;88;21751;-90
2021/04/14 11:36:30;;;;;;;14.58;8.43;;;;;;;2.81;82.08;99507.38;3977397;89;21198;-87
2021/04/14 11:42:52;;;;;;;12.85;8.03;;;;;;;2.99;82.65;99504.42;4022459;89;21199;-89
2021/04/14 11:48:58;;;;;;;32.55;10.68;;;;;;;3.05;81.69;99503.74;3983362;89;21198;-89
2021/04/14 11:55:14;;;;;;;21.33;9.78;;;;;;;3.24;81.41;99501.58;4021694;89;21648;-88
2021/04/14 12:01:24;;;;;;;19.10;8.90;;;;;;;3.50;81.28;99492.14;3942308;89;21299;-88
2021/04/14 12:07:26;;;;;;;14.75;10.88;;;;;;;3.64;81.03;99488.73;4071346;87;21187;-88
2021/04/14 12:13:29;;;;;;;14.47;7.58;;;;;;;3.97;80.97;99487.16;4094362;87;21193;-89
2021/04/14 12:19:32;;;;;;;13.78;6.92;;;;;;;4.26;80.59;99485.37;4112245;85;21187;-89
2021/04/14 12:25:34;;;;;;;11.35;7.50;;;;;;;4.49;80.04;99482.70;4098747;87;21195;-88
2021/04/14 12:31:35;;;;;;;14.15;7.45;;;;;;;4.72;79.89;99475.13;4104523;86;21485;-88
2021/04/14 12:37:37;;;;;;;12.98;8.60;;;;;;;4.92;79.31;99479.83;4114946;85;21178;-89
2021/04/14 12:43:41;;;;;;;12.73;8.25;;;;;;;4.83;79.17;99475.00;4104743;85;21628;-91
2021/04/14 12:49:43;;;;;;;15.40;8.35;;;;;;;4.66;79.47;99470.45;4018294;88;21210;-89
2021/04/14 12:55:48;;;;;;;12.55;7.42;;;;;;;4.88;79.35;99461.81;3998429;88;21194;-90
2021/04/14 13:01:54;;;;;;;23.20;11.70;;;;;;;5.11;78.67;99463.94;4022352;88;21218;-92
2021/04/14 13:08:10;;;;;;;15.40;7.70;;;;;;;5.03;78.42;99455.86;4111842;86;21156;-91
2021/04/14 13:14:12;;;;;;;12.30;4.60;;;;;;;4.88;78.26;99454.48;4119663;85;21203;-93
2021/04/14 13:20:17;;;;;;;18.45;6.72;;;;;;;4.91;77.93;99461.97;4089584;85;21170;-91
2021/04/14 13:26:34;;;;;;;;;;;;;;;4.90;76.54;99458.23;4140794;86;21170;-91
2021/04/14 13:32:59;;;;;;;12.13;5.28;;;;;;;4.89;76.30;99451.99;4114639;86;20185;-90
2021/04/14 13:39:30;;;;;;;8.03;4.17;;;;;;;5.05;73.92;99453.04;3914274;90;21221;-91
2021/04/14 13:45:58;;;;;;;14.33;5.17;;;;;;;4.96;75.59;99444.16;4072481;86;21178;-94
2021/04/14 13:52:13;;;;;;;14.70;4.78;;;;;;;5.09;74.41;99443.11;4112750;86;21206;-93
2021/04/14 13:58:30;;;;;;;12.98;5.42;;;;;;;4.94;73.77;99449.10;4146286;86;21620;-92
2021/04/14 14:04:37;;;;;;;8.70;4.03;;;;;;;4.89;73.59;99447.16;4106481;85;21136;-93
2021/04/14 14:10:49;;;;;;;25.23;6.12;;;;;;;4.92;73.43;99439.71;4050080;86;21419;-92
2021/04/14 14:17:01;;;;;;;14.03;5.83;;;;;;;4.98;72.90;99432.97;4039103;86;21210;-93
2021/04/14 14:23:09;;;;;;;11.78;4.42;;;;;;;5.05;71.45;99438.11;4091004;84;21156;-92
2021/04/14 14:29:12;;;;;;;;;;;;;;;5.08;72.19;99430.67;4106048;86;21531;-93
2021/04/14 14:35:15;;;;;;;12.58;5.33;;;;;;;5.26;71.98;99430.78;3985267;88;20159;-95
2021/04/14 14:41:22;;;;;;;13.55;5.87;;;;;;;5.26;71.39;99420.52;3943068;87;114464;-92
2021/04/14 14:47:25;;;;;;;9.25;5.45;;;;;;;5.21;70.97;99433.72;3934274;90;21220;-92
2021/04/14 14:53:29;;;;;;;10.88;7.05;;;;;;;5.01;71.36;99435.84;3921116;90;21174;-94
2021/04/14 14:59:38;;;;;;;16.05;6.83;;;;;;;4.79;70.54;99436.10;3922167;90;22323;-93
2021/04/14 15:05:40;;;;;;;18.05;7.67;;;;;;;4.65;71.46;99443.66;3916734;90;21220;-89
2021/04/14 15:11:42;;;;;;;12.80;8.18;;;;;;;4.58;71.34;99447.42;3910939;90;21184;-94
2021/04/14 15:17:44;;;;;;;25.20;9.93;;;;;;;4.58;71.16;99445.52;3913787;90;21248;-90
2021/04/14 15:23:48;;;;;;;28.40;8.90;;;;;;;4.52;71.69;99452.79;3925639;88;21169;-91
2021/04/14 15:40:37;;;;;;;15.10;8.20;;;;;;;4.44;72.07;99450.89;4540065;76;22581;-92
2021/04/14 15:46:40;;;;;;;19.70;8.18;;;;;;;4.46;72.71;99450.02;4442790;80;21620;-93
2021/04/14 15:52:43;;;;;;;13.40;8.30;;;;;;;4.43;72.52;99452.80;4438568;80;21154;-91
2021/04/14 15:58:45;;;;;;;27.95;10.80;;;;;;;4.24;72.51;99456.45;4460337;80;21609;-92
2021/04/14 16:04:47;;;;;;;15.03;8.13;;;;;;;4.14;73.19;99454.08;4441455;80;21122;-92
2021/04/14 16:10:48;;;;;;;10.82;6.90;;;;;;;4.19;73.15;99448.48;4436956;80;21124;-92
2021/04/14 16:16:50;;;;;;;20.20;8.03;;;;;;;4.10;73.05;99447.69;4467572;79;21871;-93
2021/04/14 16:22:51;;;;;;;12.25;7.28;;;;;;;4.01;73.23;99452.91;4415322;80;21154;-91
2021/04/14 16:28:55;;;;;;;11.38;6.95;;;;;;;3.95;73.32;99452.81;4379267;80;21156;-91
2021/04/14 16:34:57;;;;;;;33.23;12.28;;;;;;;3.90;73.40;99451.64;4477836;79;21160;-91
2021/04/14 16:40:58;;;;;;;19.85;7.92;;;;;;;3.80;73.77;99451.41;4365311;80;21146;-92
2021/04/14 16:47:00;;;;;;;15.50;7.10;;;;;;;3.77;73.95;99454.75;4357190;81;21145;-92
2021/04/14 16:53:02;;;;;;;14.85;7.85;;;;;;;3.86;74.18;99448.77;4356998;81;21121;-91
2021/04/14 16:59:07;;;;;;;27.07;11.55;;;;;;;3.86;73.79;99450.13;4338777;81;21121;-93
2021/04/14 17:05:32;;;;;;;;;;;;;;;;;;;;;
2021/04/14 17:23:54;;;;;;;14.45;7.42;;;;;;;3.66;74.55;99447.25;4567463;77;22934;-93
2021/04/14 17:29:56;;;;;;;14.87;8.55;;;;;;;3.66;74.83;99445.35;4484030;78;21168;-94
2021/04/14 17:36:06;;;;;;;19.00;10.15;;;;;;;3.66;74.63;99452.13;4534642;78;21200;-92
2021/04/14 17:42:07;;;;;;;19.60;9.23;;;;;;;3.57;74.46;99454.59;4470973;78;21178;-93
2021/04/14 17:48:09;;;;;;;17.87;10.55;;;;;;;3.58;75.10;99456.16;4487288;78;21150;-92
2021/04/14 17:54:27;;;;;;;18.20;12.25;;;;;;;3.63;74.99;99460.08;4480734;78;21144;-91
2021/04/14 18:00:49;;;;;;;20.75;12.88;;;;;;;3.61;75.24;99460.94;4576527;76;23755;-93
2021/04/14 18:06:51;;;;;;;22.98;12.55;;;;;;;3.46;74.81;99460.84;4501361;78;21153;-92
2021/04/14 18:12:55;;;;;;;47.85;18.12;;;;;;;3.41;75.06;99466.98;4485295;78;21144;-92
2021/04/14 18:18:57;;;;;;;24.40;14.03;;;;;;;3.37;75.16;99461.39;4503802;78;21157;-92
2021/04/14 18:25:00;;;;;;;23.47;11.93;;;;;;;3.34;75.51;99463.92;4492779;78;21156;-93
2021/04/14 18:31:03;;;;;;;31.40;18.12;;;;;;;3.32;75.50;99462.12;4498685;78;21136;-93
2021/04/14 18:37:05;;;;;;;19.37;11.35;;;;;;;3.35;75.63;99463.64;4488934;78;21152;-92
2021/04/14 18:43:07;;;;;;;20.90;13.72;;;;;;;3.32;75.88;99470.23;4493228;78;21112;-92
2021/04/14 18:55:44;;;;;;;20.02;12.80;;;;;;;3.24;76.07;99471.23;4496523;78;21160;-91
2021/04/14 19:01:46;;;;;;;22.32;12.25;;;;;;;3.22;76.04;99476.73;4487415;78;21613;-93
2021/04/14 19:07:48;;;;;;;22.05;11.40;;;;;;;3.18;76.45;99479.81;4490033;78;21743;-92
2021/04/14 19:13:49;;;;;;;18.52;11.90;;;;;;;3.16;76.53;99479.35;4502422;78;21109;-93
2021/04/14 19:19:51;;;;;;;15.55;9.40;;;;;;;3.11;76.68;99474.08;4511021;78;21110;-91
2021/04/14 19:25:53;;;;;;;18.57;11.30;;;;;;;3.09;76.63;99482.52;4487594;78;21133;-94
2021/04/14 19:31:55;;;;;;;17.15;10.80;;;;;;;3.11;76.72;99475.44;4477755;79;21571;-91
2021/04/14 19:37:57;;;;;;;17.35;11.28;;;;;;;3.07;76.81;99473.09;4488664;78;21117;-92
2021/04/14 19:44:07;;;;;;;20.77;11.25;;;;;;;3.02;77.08;99473.27;4476551;79;21148;-92
2021/04/14 19:50:11;;;;;;;25.90;11.88;;;;;;;3.00;76.99;99474.13;4467305;78;21540;-92
2021/04/14 19:56:12;;;;;;;22.22;13.62;;;;;;;3.01;77.16;99472.46;4509870;78;21218;-93
2021/04/14 20:02:15;;;;;;;31.52;16.17;;;;;;;3.01;77.25;99464.89;4480888;78;21163;-93
2021/04/14 20:08:16;;;;;;;24.32;14.07;;;;;;;3.01;77.34;99463.00;4488069;78;21152;-91
2021/04/14 20:14:19;;;;;;;26.48;15.40;;;;;;;3.04;77.52;99469.67;4493467;78;21469;-92
2021/04/14 20:20:23;;;;;;;33.05;16.37;;;;;;;3.05;77.57;99469.36;4484381;78;21160;-90
2021/04/14 20:26:24;;;;;;;21.75;12.63;;;;;;;3.10;77.64;99467.09;4490191;78;21831;-91
2021/04/14 20:32:27;;;;;;;22.58;13.93;;;;;;;3.14;77.70;99463.44;4486683;78;21298;-91
2021/04/14 20:38:29;;;;;;;26.57;15.70;;;;;;;3.13;77.80;99463.75;4492698;78;21159;-91
2021/04/14 20:44:32;;;;;;;34.80;17.15;;;;;;;3.13;77.96;99452.36;4486070;79;21155;-90
2021/04/14 20:50:33;;;;;;;29.48;17.20;;;;;;;3.13;78.04;99453.70;4486696;78;21129;-91
2021/04/14 20:56:36;;;;;;;30.57;17.12;;;;;;;3.15;78.06;99447.44;4489417;78;21169;-90
2021/04/14 21:02:38;;;;;;;32.65;16.73;;;;;;;3.14;78.21;99451.27;4495832;78;21149;-91
2021/04/14 21:08:39;;;;;;;30.50;16.27;;;;;;;3.11;78.30;99444.33;4497502;78;21153;-92
2021/04/14 21:14:42;;;;;;;29.00;16.48;;;;;;;3.07;78.34;99442.80;4502184;78;21161;-90
2021/04/14 21:20:44;;;;;;;26.97;15.23;;;;;;;3.07;78.56;99433.88;4496391;78;21173;-91
2021/04/14 21:26:48;;;;;;;28.50;16.70;;;;;;;3.09;78.41;99435.72;4495468;79;21148;-92
2021/04/14 21:32:56;;;;;;;29.00;16.77;;;;;;;3.07;78.55;99430.63;4485951;78;21138;-91
2021/04/14 21:38:58;;;;;;;30.90;17.50;;;;;;;3.05;78.66;99431.48;4488630;78;21161;-91
2021/04/14 21:44:59;;;;;;;32.58;17.45;;;;;;;2.98;78.81;99425.76;4488215;78;21125;-91
2021/04/14 21:51:01;;;;;;;30.60;17.12;;;;;;;2.98;78.73;99421.70;4497218;78;21164;-92
2021/04/14 21:57:03;;;;;;;37.38;17.92;;;;;;;3.00;78.66;99424.90;4489524;78;21156;-90
2021/04/14 22:03:07;;;;;;;32.83;19.25;;;;;;;3.00;78.75;99418.14;4488492;78;21574;-91
2021/04/14 22:09:09;;;;;;;28.55;16.40;;;;;;;2.99;78.89;99411.69;4498117;79;21573;-92
2021/04/14 22:15:12;;;;;;;24.52;15.23;;;;;;;2.97;79.17;99414.72;4497269;78;21197;-91
2021/04/14 22:21:15;;;;;;;28.83;15.98;;;;;;;2.95;79.00;99416.13;4495712;78;21169;-92
2021/04/14 22:27:16;;;;;;;23.73;16.07;;;;;;;2.97;79.27;99412.01;4315527;81;21184;-92
2021/04/14 22:33:22;;;;;;;22.17;15.63;;;;;;;2.97;79.42;99405.80;4389036;80;21294;-89
2021/04/14 22:39:24;;;;;;;24.30;15.97;;;;;;;2.89;79.42;99404.67;4344802;81;21572;-91
2021/04/14 22:45:25;;;;;;;23.77;14.90;;;;;;;2.84;79.60;99399.41;4353866;80;21157;-91
2021/04/14 22:51:27;;;;;;;21.42;12.82;;;;;;;2.83;79.72;99397.02;4340881;81;21464;-91
2021/04/14 22:57:28;;;;;;;24.23;13.58;;;;;;;2.78;79.79;99394.45;4372900;80;21142;-90
2021/04/14 23:03:31;;;;;;;23.55;13.65;;;;;;;2.70;79.91;99403.33;4394711;79;21578;-91
2021/04/14 23:09:32;;;;;;;22.05;13.58;;;;;;;2.66;80.16;99401.80;4356444;81;21157;-92
2021/04/14 23:15:34;;;;;;;17.87;11.73;;;;;;;2.65;80.35;99398.86;4347842;81;21192;-91
2021/04/14 23:21:37;;;;;;;20.30;12.05;;;;;;;2.66;80.17;99392.91;4333009;81;21161;-92
2021/04/14 23:27:38;;;;;;;22.42;10.60;;;;;;;2.59;80.35;99396.06;4352834;81;21167;-91
2021/04/14 23:33:40;;;;;;;16.40;9.53;;;;;;;2.56;80.53;99394.53;4339272;81;21589;-91
2021/04/14 23:39:42;;;;;;;20.70;11.68;;;;;;;2.55;80.53;99384.84;4385462;81;21156;-93
2021/04/14 23:46:02;;;;;;;18.60;9.75;;;;;;;2.56;80.73;99387.23;4326701;82;21585;-92
2021/04/14 23:52:04;;;;;;;11.90;7.17;;;;;;;2.52;80.68;99380.06;4382458;81;21141;-91
2021/04/14 23:58:11;;;;;;;10.25;6.65;;;;;;;2.47;80.67;99373.44;4312711;82;21169;-92
